createdAt,value
2019-05-05T00:00:44.715Z,151003.33
2019-05-05T00:03:26.662Z,150961.50
2019-05-05T00:05:56.764Z,150995.47
2019-05-05T00:08:25.252Z,150988.92
2019-05-05T00:10:56.987Z,150927.50
2019-05-05T00:13:27.365Z,150953.66
2019-05-05T00:16:15.171Z,150945.81
2019-05-05T00:18:44.762Z,150940.59
2019-05-05T00:21:15.156Z,150877.84
2019-05-05T00:23:45.134Z,150864.80
2019-05-05T00:26:14.903Z,150868.75
2019-05-05T00:28:44.791Z,150828.25
2019-05-05T00:31:15.072Z,150850.44
2019-05-05T00:33:44.866Z,150843.89
2019-05-05T00:36:14.532Z,150840.00
2019-05-05T00:38:44.559Z,150826.94
2019-05-05T00:41:14.840Z,150834.75
2019-05-05T00:43:45.117Z,150803.39
2019-05-05T00:46:17.855Z,150783.80
2019-05-05T00:48:47.697Z,150777.30
2019-05-05T00:51:16.236Z,150753.75
2019-05-05T00:53:45.041Z,150736.81
2019-05-05T00:56:14.399Z,150774.66
2019-05-05T00:58:44.711Z,150745.97
2019-05-05T01:01:30.146Z,150715.94
2019-05-05T01:03:58.628Z,150731.56
2019-05-05T01:06:28.731Z,150736.81
2019-05-05T01:08:57.229Z,150739.42
2019-05-05T01:11:26.021Z,150748.56
2019-05-05T01:13:54.779Z,150708.08
2019-05-05T01:16:24.762Z,150740.72
2019-05-05T01:18:55.365Z,150755.11
2019-05-05T01:21:24.426Z,150722.42
2019-05-05T01:23:54.803Z,150755.11
2019-05-05T01:26:24.865Z,150770.75
2019-05-05T01:28:53.502Z,150757.70
2019-05-05T01:31:22.832Z,150735.52
2019-05-05T01:34:08.194Z,150722.42
2019-05-05T01:36:36.743Z,150757.70
2019-05-05T01:39:14.637Z,150732.87
2019-05-05T01:41:45.289Z,150702.84
2019-05-05T01:44:15.237Z,150704.19
2019-05-05T01:46:44.520Z,150692.39
2019-05-05T01:49:14.645Z,150668.91
2019-05-05T01:51:44.762Z,150625.84
2019-05-05T01:54:14.461Z,150674.16
2019-05-05T01:56:44.546Z,150648.02
2019-05-05T01:59:14.407Z,150620.59
2019-05-05T02:01:44.539Z,150608.86
2019-05-05T02:04:14.420Z,150601.06
2019-05-05T02:06:44.459Z,150550.16
2019-05-05T02:09:15.923Z,150611.50
2019-05-05T02:11:45.303Z,150571.03
2019-05-05T02:14:15.599Z,150577.53
2019-05-05T02:16:45.208Z,150615.41
2019-05-05T02:19:14.353Z,150619.30
2019-05-05T02:21:42.907Z,150577.53
2019-05-05T02:24:14.457Z,150572.34
2019-05-05T02:26:45.438Z,150585.38
2019-05-05T02:29:17.685Z,150538.37
2019-05-05T02:32:06.207Z,150509.70
2019-05-05T02:34:36.096Z,150525.34
2019-05-05T02:37:05.439Z,150517.50
2019-05-05T02:39:37.426Z,150483.59
2019-05-05T02:42:05.681Z,150481.00
2019-05-05T02:44:35.416Z,150499.27
2019-05-05T02:47:20.082Z,150469.25
2019-05-05T02:49:50.132Z,150475.75
2019-05-05T02:52:20.257Z,150507.06
2019-05-05T02:54:53.631Z,150473.16
2019-05-05T02:57:24.024Z,150460.13
2019-05-05T02:59:58.061Z,150434.00
2019-05-05T03:02:28.338Z,150435.31
2019-05-05T03:04:56.992Z,150402.70
2019-05-05T03:07:27.655Z,150398.81
2019-05-05T03:09:57.466Z,150409.25
2019-05-05T03:12:27.593Z,150423.58
2019-05-05T03:14:58.787Z,150410.55
2019-05-05T03:17:27.418Z,150394.88
2019-05-05T03:19:56.541Z,150394.88
2019-05-05T03:22:25.879Z,150360.98
2019-05-05T03:24:54.360Z,150354.50
2019-05-05T03:27:23.808Z,150359.69
2019-05-05T03:29:53.570Z,150346.66
2019-05-05T03:32:25.379Z,150360.98
2019-05-05T03:34:53.706Z,150340.12
2019-05-05T03:37:24.838Z,150330.98
2019-05-05T03:39:55.635Z,150321.84
2019-05-05T03:42:25.713Z,150332.28
2019-05-05T03:44:55.906Z,150332.28
2019-05-05T03:47:24.892Z,150330.98
2019-05-05T03:49:54.431Z,150294.50
2019-05-05T03:52:24.456Z,150312.72
2019-05-05T03:54:54.222Z,150351.84
2019-05-05T03:57:24.632Z,150256.69
2019-05-05T03:59:54.779Z,150273.66
2019-05-05T04:02:31.117Z,150277.55
2019-05-05T04:05:14.562Z,150298.41
2019-05-05T04:07:44.114Z,150334.94
2019-05-05T04:10:14.016Z,150341.42
2019-05-05T04:12:43.561Z,150321.84
2019-05-05T04:15:14.162Z,150324.50
2019-05-05T04:17:56.450Z,150350.55
2019-05-05T04:20:27.130Z,150342.72
2019-05-05T04:22:58.094Z,150325.80
2019-05-05T04:25:25.869Z,150346.66
2019-05-05T04:27:54.334Z,150351.84
2019-05-05T04:30:23.668Z,150368.81
2019-05-05T04:32:54.411Z,150381.84
2019-05-05T04:35:24.453Z,150400.11
2019-05-05T04:37:54.274Z,150398.81
2019-05-05T04:40:24.062Z,150413.14
2019-05-05T04:42:54.750Z,150424.88
2019-05-05T04:45:24.103Z,150441.84
2019-05-05T04:47:54.401Z,150454.88
2019-05-05T04:50:27.326Z,150464.02
2019-05-05T04:52:57.427Z,150464.02
2019-05-05T04:55:25.921Z,150484.89
2019-05-05T04:57:54.371Z,150488.83
2019-05-05T05:00:24.173Z,150508.41
2019-05-05T05:02:57.416Z,150529.28
2019-05-05T05:05:30.212Z,150561.91
2019-05-05T05:07:58.671Z,150586.67
2019-05-05T05:10:27.154Z,150599.72
2019-05-05T05:12:55.627Z,150623.25
2019-05-05T05:15:24.092Z,150653.27
2019-05-05T05:17:56.901Z,150689.80
2019-05-05T05:20:25.371Z,150701.53
2019-05-05T05:22:54.423Z,150731.56
2019-05-05T05:25:24.002Z,150765.56
2019-05-05T05:27:53.666Z,150802.09
2019-05-05T05:30:24.096Z,150830.84
2019-05-05T05:32:53.884Z,150862.19
2019-05-05T05:35:24.418Z,150888.30
2019-05-05T05:37:54.301Z,150934.05
2019-05-05T05:40:44.415Z,150966.72
2019-05-05T05:43:14.642Z,151016.37
2019-05-05T05:45:47.687Z,151056.91
2019-05-05T05:48:17.803Z,151113.16
2019-05-05T05:50:50.372Z,151161.55
2019-05-05T05:53:18.855Z,151209.95
2019-05-05T05:55:47.336Z,151250.50
2019-05-05T05:58:15.825Z,151293.66
2019-05-05T06:00:44.465Z,151332.92
2019-05-05T06:03:14.173Z,151380.00
2019-05-05T06:05:43.592Z,151416.67
2019-05-05T06:08:14.156Z,151480.80
2019-05-05T06:10:44.250Z,151531.86
2019-05-05T06:13:15.416Z,151576.36
2019-05-05T06:15:44.379Z,151626.14
2019-05-05T06:18:13.848Z,151636.63
2019-05-05T06:20:44.574Z,151704.81
2019-05-05T06:23:14.761Z,151742.77
2019-05-05T06:25:44.600Z,151810.92
2019-05-05T06:28:14.514Z,151883.02
2019-05-05T06:30:44.333Z,151939.38
2019-05-05T06:33:13.705Z,152001.00
2019-05-05T06:35:44.229Z,152060.03
2019-05-05T06:38:13.614Z,152132.19
2019-05-05T06:40:44.417Z,152207.00
2019-05-05T06:43:17.664Z,152268.69
2019-05-05T06:45:47.765Z,152357.97
2019-05-05T06:48:16.271Z,152502.44
2019-05-05T06:50:44.803Z,152597.06
2019-05-05T06:53:13.647Z,152719.30
2019-05-05T06:55:44.290Z,152788.98
2019-05-05T06:58:13.696Z,152904.69
2019-05-05T07:00:44.098Z,152967.88
2019-05-05T07:03:13.946Z,153061.28
2019-05-05T07:05:43.808Z,153133.66
2019-05-05T07:08:13.806Z,153233.69
2019-05-05T07:10:44.376Z,153311.44
2019-05-05T07:13:14.097Z,153323.28
2019-05-05T07:15:43.776Z,153321.97
2019-05-05T07:18:14.256Z,153509.03
2019-05-05T07:20:44.061Z,153541.97
2019-05-05T07:23:14.504Z,153605.27
2019-05-05T07:25:45.696Z,153660.67
2019-05-05T07:28:14.760Z,153730.52
2019-05-05T07:30:44.241Z,153813.59
2019-05-05T07:33:14.751Z,153898.06
2019-05-05T07:35:56.903Z,153779.31
2019-05-05T07:38:21.111Z,153748.98
2019-05-05T07:40:49.586Z,153892.80
2019-05-05T07:43:18.071Z,153938.95
2019-05-05T07:45:46.616Z,153747.67
2019-05-05T07:48:15.066Z,153813.59
2019-05-05T07:50:58.685Z,153840.00
2019-05-05T07:53:17.535Z,153929.77
2019-05-05T07:55:44.251Z,153973.30
2019-05-05T07:58:13.969Z,153890.19
2019-05-05T08:00:43.690Z,153958.75
2019-05-05T08:03:14.306Z,154143.59
2019-05-05T08:05:44.197Z,154156.78
2019-05-05T08:08:13.881Z,154018.16
2019-05-05T08:10:43.790Z,154082.81
2019-05-05T08:13:14.096Z,154043.20
2019-05-05T08:15:56.203Z,154072.25
2019-05-05T08:18:28.482Z,153956.13
2019-05-05T08:21:04.394Z,154041.89
2019-05-05T08:23:35.574Z,153969.31
2019-05-05T08:26:08.435Z,153842.63
2019-05-05T08:28:47.489Z,154007.59
2019-05-05T08:31:26.104Z,154000.97
2019-05-05T08:33:54.784Z,154040.58
2019-05-05T08:36:23.837Z,154022.09
2019-05-05T08:38:54.498Z,154006.28
2019-05-05T08:41:24.408Z,154180.58
2019-05-05T08:43:54.277Z,153912.59
2019-05-05T08:46:24.765Z,153948.19
2019-05-05T08:48:53.726Z,154011.53
2019-05-05T08:51:24.569Z,154074.88
2019-05-05T08:53:54.432Z,153986.48
2019-05-05T08:56:23.835Z,154059.06
2019-05-05T08:58:54.362Z,154270.34
2019-05-05T09:01:23.773Z,154206.97
2019-05-05T09:03:53.545Z,153998.34
2019-05-05T09:06:24.124Z,153673.84
2019-05-05T09:08:54.626Z,153549.88
2019-05-05T09:11:24.093Z,153700.19
2019-05-05T09:13:53.525Z,153474.78
2019-05-05T09:16:24.085Z,153746.36
2019-05-05T09:19:06.183Z,153932.39
2019-05-05T09:21:34.714Z,153928.41
2019-05-05T09:24:21.102Z,154349.61
2019-05-05T09:26:51.255Z,154175.28
2019-05-05T09:29:21.366Z,153803.03
2019-05-05T09:31:49.923Z,154193.78
2019-05-05T09:34:18.380Z,154245.28
2019-05-05T09:36:47.043Z,154082.81
2019-05-05T09:39:15.469Z,154246.59
2019-05-05T09:41:44.598Z,154442.16
2019-05-05T09:44:13.672Z,154444.78
2019-05-05T09:46:44.502Z,154328.48
2019-05-05T09:49:14.086Z,154672.19
2019-05-05T09:51:43.964Z,154711.87
2019-05-05T09:54:16.678Z,154889.16
2019-05-05T09:56:44.462Z,154738.28
2019-05-05T09:59:13.569Z,154824.25
2019-05-05T10:01:44.334Z,154427.59
2019-05-05T10:04:13.847Z,154257.16
2019-05-05T10:06:45.721Z,154037.95
2019-05-05T10:09:13.816Z,153927.09
2019-05-05T10:11:44.824Z,153669.84
2019-05-05T10:14:14.366Z,153669.84
2019-05-05T10:16:43.024Z,153531.42
2019-05-05T10:19:13.770Z,153987.80
2019-05-05T10:21:41.716Z,153609.27
2019-05-05T10:24:24.956Z,153681.77
2019-05-05T10:26:43.793Z,153444.48
2019-05-05T10:29:13.596Z,153357.52
2019-05-05T10:31:43.682Z,153399.66
2019-05-05T10:34:13.937Z,153361.50
2019-05-05T10:36:44.191Z,153675.16
2019-05-05T10:39:14.433Z,154098.67
2019-05-05T10:41:44.154Z,154395.87
2019-05-05T10:44:14.148Z,154463.30
2019-05-05T10:46:42.703Z,153965.37
2019-05-05T10:49:11.189Z,153879.63
2019-05-05T10:51:39.638Z,153799.09
2019-05-05T10:54:08.114Z,153626.36
2019-05-05T10:56:36.579Z,153630.34
2019-05-05T10:59:05.116Z,153477.41
2019-05-05T11:01:33.581Z,153290.38
2019-05-05T11:04:02.075Z,153418.11
2019-05-05T11:06:30.770Z,153277.16
2019-05-05T11:08:59.641Z,153341.73
2019-05-05T11:11:28.180Z,153178.41
2019-05-05T11:13:56.951Z,153042.84
2019-05-05T11:16:25.426Z,153031.02
2019-05-05T11:18:54.183Z,152879.67
2019-05-05T11:21:23.683Z,152919.14
2019-05-05T11:23:53.909Z,152979.70
2019-05-05T11:26:24.541Z,152928.36
2019-05-05T11:28:53.859Z,152962.59
2019-05-05T11:31:23.910Z,152981.02
2019-05-05T11:34:00.139Z,152942.80
2019-05-05T11:36:30.264Z,152865.23
2019-05-05T11:38:58.795Z,152859.94
2019-05-05T11:41:27.261Z,152840.27
2019-05-05T11:43:55.746Z,152854.70
2019-05-05T11:46:24.785Z,152838.91
2019-05-05T11:48:54.386Z,152853.41
2019-05-05T11:51:24.957Z,152854.70
2019-05-05T11:53:53.986Z,152825.77
2019-05-05T11:56:22.683Z,152823.16
2019-05-05T11:58:51.129Z,152944.16
2019-05-05T12:01:19.620Z,152938.87
2019-05-05T12:03:48.483Z,152986.31
2019-05-05T12:06:17.180Z,152986.31
2019-05-05T12:08:46.102Z,152966.56
2019-05-05T12:11:15.137Z,152961.28
2019-05-05T12:13:44.004Z,152891.50
2019-05-05T12:16:14.286Z,152891.50
2019-05-05T12:18:44.790Z,152841.58
2019-05-05T12:21:13.994Z,152803.42
2019-05-05T12:23:44.458Z,152773.19
2019-05-05T12:26:14.497Z,152728.50
2019-05-05T12:28:47.798Z,152762.66
2019-05-05T12:31:20.779Z,152746.92
2019-05-05T12:33:49.237Z,152746.92
2019-05-05T12:36:17.712Z,152779.78
2019-05-05T12:38:46.182Z,152763.97
2019-05-05T12:41:14.967Z,152727.19
2019-05-05T12:43:44.149Z,152723.22
2019-05-05T12:46:29.551Z,152723.22
2019-05-05T12:48:59.656Z,152725.84
2019-05-05T12:51:47.179Z,152760.05
2019-05-05T12:54:15.638Z,152762.66
2019-05-05T12:56:44.645Z,152749.53
2019-05-05T12:59:14.968Z,152737.72
2019-05-05T13:01:44.126Z,152753.45
2019-05-05T13:04:14.130Z,152749.53
2019-05-05T13:06:44.867Z,152770.56
2019-05-05T13:09:14.552Z,152795.53
2019-05-05T13:11:43.746Z,152723.22
2019-05-05T13:14:14.262Z,152762.66
2019-05-05T13:16:52.046Z,152799.50
2019-05-05T13:19:14.679Z,152799.50
2019-05-05T13:21:44.894Z,152775.80
2019-05-05T13:24:25.148Z,152817.88
2019-05-05T13:26:57.964Z,152812.64
2019-05-05T13:29:26.417Z,152838.91
2019-05-05T13:31:54.897Z,152810.02
2019-05-05T13:34:23.428Z,152807.34
2019-05-05T13:36:51.945Z,152804.73
2019-05-05T13:39:20.414Z,152786.31
2019-05-05T13:41:48.969Z,152812.64
2019-05-05T13:44:27.720Z,152825.77
2019-05-05T13:46:56.208Z,152825.77
2019-05-05T13:49:26.305Z,152831.05
2019-05-05T13:51:54.792Z,152792.91
2019-05-05T13:54:24.269Z,152859.94
2019-05-05T13:56:52.924Z,152859.94
2019-05-05T13:59:21.389Z,152828.38
2019-05-05T14:01:49.863Z,152777.11
2019-05-05T14:04:18.387Z,152792.91
2019-05-05T14:06:49.719Z,152833.67
2019-05-05T14:09:17.066Z,152833.67
2019-05-05T14:11:45.577Z,152850.78
2019-05-05T14:14:14.031Z,152854.70
2019-05-05T14:16:44.690Z,152844.19
2019-05-05T14:19:14.653Z,152841.58
2019-05-05T14:21:44.646Z,152861.30
2019-05-05T14:24:14.737Z,152841.58
2019-05-05T14:26:43.200Z,152850.78
2019-05-05T14:29:14.641Z,152854.70
2019-05-05T14:31:44.534Z,152831.05
2019-05-05T14:34:26.416Z,152817.88
2019-05-05T14:37:14.208Z,152817.88
2019-05-05T14:39:43.625Z,152785.00
2019-05-05T14:42:12.182Z,152746.92
2019-05-05T14:44:40.697Z,152778.47
2019-05-05T14:47:09.152Z,152778.47
2019-05-05T14:49:37.633Z,152783.69
2019-05-05T14:52:06.106Z,152742.94
2019-05-05T14:54:34.621Z,152761.36
2019-05-05T14:57:04.526Z,152744.25
2019-05-05T14:59:34.051Z,152717.98
2019-05-05T15:02:04.147Z,152694.30
2019-05-05T15:04:34.890Z,152695.66
2019-05-05T15:07:07.717Z,152689.06
2019-05-05T15:09:44.115Z,152675.94
2019-05-05T15:15:03.807Z,152696.95
2019-05-05T15:17:33.687Z,152686.44
2019-05-05T15:20:02.052Z,152679.86
2019-05-05T15:22:30.518Z,152685.14
2019-05-05T15:24:58.994Z,152691.69
2019-05-05T15:27:27.448Z,152694.30
2019-05-05T15:29:55.926Z,152704.81
2019-05-05T15:32:24.379Z,152703.50
2019-05-05T15:34:54.530Z,152711.39
2019-05-05T15:37:23.745Z,152686.44
2019-05-05T15:39:53.627Z,152657.52
2019-05-05T15:42:22.259Z,152669.34
2019-05-05T15:44:50.752Z,152678.55
2019-05-05T15:47:19.237Z,152679.86
2019-05-05T15:49:47.729Z,152660.14
2019-05-05T15:52:16.213Z,152652.25
2019-05-05T15:54:44.831Z,152657.52
2019-05-05T15:57:14.904Z,152657.52
2019-05-05T15:59:43.730Z,152631.22
2019-05-05T16:02:13.369Z,152618.09
2019-05-05T16:04:42.044Z,152643.03
2019-05-05T16:07:10.535Z,152654.91
2019-05-05T16:09:38.981Z,152668.03
2019-05-05T16:12:07.556Z,152671.97
2019-05-05T16:14:37.663Z,152673.27
2019-05-05T16:17:10.762Z,152686.44
2019-05-05T16:19:46.870Z,152696.95
2019-05-05T16:22:17.598Z,152706.16
2019-05-05T16:24:47.771Z,152700.87
2019-05-05T16:27:21.602Z,152717.98
2019-05-05T16:29:46.455Z,152702.19
2019-05-05T16:32:21.332Z,152696.95
2019-05-05T16:34:45.149Z,152695.66
2019-05-05T16:37:14.313Z,152710.09
2019-05-05T16:39:43.950Z,152699.58
2019-05-05T16:42:13.597Z,152695.66
2019-05-05T16:44:43.367Z,152665.42
2019-05-05T16:47:13.585Z,152677.23
2019-05-05T16:49:44.366Z,152647.02
2019-05-05T16:52:14.634Z,152644.39
2019-05-05T16:54:44.853Z,152633.87
2019-05-05T16:57:14.409Z,152632.53
2019-05-05T16:59:44.208Z,152620.70
2019-05-05T17:02:13.947Z,152602.34
2019-05-05T17:04:43.368Z,152597.06
2019-05-05T17:07:11.981Z,152556.28
2019-05-05T17:09:40.425Z,152639.11
2019-05-05T17:12:08.902Z,152551.06
2019-05-05T17:14:39.432Z,152554.97
2019-05-05T17:17:15.280Z,152543.16
2019-05-05T17:19:45.391Z,152536.58
2019-05-05T17:22:27.675Z,152552.36
2019-05-05T17:24:56.147Z,152502.44
2019-05-05T17:27:24.639Z,152522.14
2019-05-05T17:29:53.616Z,152509.03
2019-05-05T17:32:22.258Z,152531.34
2019-05-05T17:34:50.718Z,152547.08
2019-05-05T17:37:19.206Z,152551.06
2019-05-05T17:39:55.054Z,152536.58
2019-05-05T17:42:44.026Z,152501.13
2019-05-05T17:45:23.648Z,152490.63
2019-05-05T17:47:54.025Z,152478.81
2019-05-05T17:50:44.005Z,152512.94
2019-05-05T17:53:17.132Z,152470.91
2019-05-05T17:55:45.590Z,152439.41
2019-05-05T17:58:14.074Z,152421.00
2019-05-05T18:00:46.930Z,152381.59
2019-05-05T18:03:14.397Z,152393.41
2019-05-05T18:06:03.225Z,152377.69
2019-05-05T18:08:48.768Z,152415.78
2019-05-05T18:11:27.753Z,152376.38
2019-05-05T18:14:00.599Z,152360.59
2019-05-05T18:16:29.202Z,152378.98
2019-05-05T18:18:57.682Z,152348.78
2019-05-05T18:21:29.344Z,152350.09
2019-05-05T18:23:56.367Z,152335.67
2019-05-05T18:26:24.841Z,152287.08
2019-05-05T18:28:54.065Z,152287.08
2019-05-05T18:31:24.271Z,152277.89
2019-05-05T18:33:54.355Z,152255.59
2019-05-05T18:36:23.114Z,152237.19
2019-05-05T18:38:53.670Z,152207.00
2019-05-05T18:41:41.267Z,152191.28
2019-05-05T18:44:13.305Z,152203.09
2019-05-05T18:46:43.482Z,152209.67
2019-05-05T18:49:13.761Z,152184.66
2019-05-05T18:51:43.812Z,152162.36
2019-05-05T18:54:12.174Z,152179.44
2019-05-05T18:56:40.667Z,152185.97
2019-05-05T18:59:09.460Z,152175.47
2019-05-05T19:01:48.594Z,152159.75
2019-05-05T19:04:18.704Z,152176.78
2019-05-05T19:06:54.845Z,152180.75
2019-05-05T19:09:24.882Z,152162.36
2019-05-05T19:11:54.627Z,152164.97
2019-05-05T19:14:24.192Z,152134.80
2019-05-05T19:16:55.301Z,152120.38
2019-05-05T19:19:24.006Z,152102.00
2019-05-05T19:21:57.877Z,152090.20
2019-05-05T19:24:26.415Z,152092.81
2019-05-05T19:26:56.071Z,152124.30
2019-05-05T19:29:24.825Z,152119.08
2019-05-05T19:31:54.734Z,152125.61
2019-05-05T19:34:24.124Z,152098.09
2019-05-05T19:36:54.677Z,152074.48
2019-05-05T19:39:24.325Z,152078.41
2019-05-05T19:41:54.437Z,152071.83
2019-05-05T19:44:25.827Z,152078.41
2019-05-05T19:47:00.739Z,152048.23
2019-05-05T19:49:29.195Z,152069.22
2019-05-05T19:51:57.679Z,152044.31
2019-05-05T19:54:26.131Z,152049.53
2019-05-05T19:56:54.599Z,152040.34
2019-05-05T19:59:23.122Z,152001.00
2019-05-05T20:01:53.857Z,152010.19
2019-05-05T20:04:23.981Z,151982.69
2019-05-05T20:06:51.992Z,151959.03
2019-05-05T20:09:20.459Z,151980.02
2019-05-05T20:11:48.939Z,151969.53
2019-05-05T20:14:17.389Z,151960.34
2019-05-05T20:16:59.732Z,151972.19
2019-05-05T20:19:29.160Z,151935.45
2019-05-05T20:21:57.635Z,151930.23
2019-05-05T20:24:26.094Z,151930.23
2019-05-05T20:26:55.381Z,151928.87
2019-05-05T20:29:24.070Z,151913.17
2019-05-05T20:31:54.804Z,151904.00
2019-05-05T20:34:27.010Z,151892.20
2019-05-05T20:36:57.143Z,151883.02
2019-05-05T20:39:25.585Z,151892.20
2019-05-05T20:41:54.386Z,151869.92
2019-05-05T20:44:24.681Z,151868.63
2019-05-05T20:46:53.590Z,151846.30
2019-05-05T20:49:23.769Z,151851.56
2019-05-05T20:51:52.332Z,151837.16
2019-05-05T20:54:20.804Z,151839.78
2019-05-05T20:56:49.273Z,151821.41
2019-05-05T20:59:27.621Z,151830.59
2019-05-05T21:01:47.931Z,151808.31
2019-05-05T21:04:16.413Z,151782.09
2019-05-05T21:06:44.892Z,151812.23
2019-05-05T21:09:14.210Z,151796.53
2019-05-05T21:11:43.751Z,151779.47
2019-05-05T21:14:14.645Z,151804.36
2019-05-05T21:16:44.056Z,151814.84
2019-05-05T21:19:14.053Z,151804.36
2019-05-05T21:21:44.663Z,151822.72
2019-05-05T21:24:13.172Z,151814.84
2019-05-05T21:26:49.251Z,151797.84
2019-05-05T21:29:18.499Z,151783.39
2019-05-05T21:31:46.961Z,151793.88
2019-05-05T21:34:15.443Z,151772.91
2019-05-05T21:36:44.812Z,151791.27
2019-05-05T21:39:14.849Z,151775.56
2019-05-05T21:41:43.899Z,151778.17
2019-05-05T21:44:14.459Z,151774.22
2019-05-05T21:46:43.745Z,151762.42
2019-05-05T21:49:13.645Z,151736.25
2019-05-05T21:54:38.323Z,151730.98
2019-05-05T21:57:14.178Z,151727.06
2019-05-05T21:59:55.253Z,151699.50
2019-05-05T22:02:15.183Z,151712.63
2019-05-05T22:04:43.262Z,151711.33
2019-05-05T22:07:11.707Z,151691.63
2019-05-05T22:09:40.179Z,151682.50
2019-05-05T22:12:08.644Z,151678.53
2019-05-05T22:14:37.123Z,151660.19
2019-05-05T22:17:05.587Z,151627.44
2019-05-05T22:19:38.620Z,151636.63
2019-05-05T22:22:11.690Z,151623.53
2019-05-05T22:24:40.226Z,151639.22
2019-05-05T22:27:09.241Z,151626.14
2019-05-05T22:29:37.721Z,151607.80
2019-05-05T22:32:06.435Z,151609.09
2019-05-05T22:34:34.935Z,151594.72
2019-05-05T22:37:06.533Z,151584.23
2019-05-05T22:39:33.872Z,151550.20
2019-05-05T22:42:04.624Z,151560.67
2019-05-05T22:44:33.903Z,151529.25
2019-05-05T22:47:04.683Z,151512.22
2019-05-05T22:49:32.903Z,151542.33
2019-05-05T22:52:03.690Z,151510.91
2019-05-05T22:54:33.501Z,151513.52
2019-05-05T22:57:01.802Z,151516.13
2019-05-05T22:59:30.256Z,151495.19
2019-05-05T23:01:58.912Z,151495.19
2019-05-05T23:04:32.125Z,151472.94
2019-05-05T23:07:14.580Z,151480.80
2019-05-05T23:09:44.310Z,151448.08
2019-05-05T23:12:13.649Z,151450.69
2019-05-05T23:14:43.682Z,151419.28
2019-05-05T23:17:26.217Z,151427.14
2019-05-05T23:23:01.738Z,151402.25
2019-05-05T23:25:31.838Z,151421.88
2019-05-05T23:28:00.323Z,151393.08
2019-05-05T23:30:39.542Z,151397.03
2019-05-05T23:32:58.972Z,151357.77
2019-05-05T23:35:27.444Z,151374.80
2019-05-05T23:37:55.941Z,151377.41
2019-05-05T23:40:26.440Z,151364.33
2019-05-05T23:42:55.000Z,151336.83
2019-05-05T23:45:24.863Z,151360.38
2019-05-05T23:47:54.467Z,151363.02
2019-05-05T23:50:23.607Z,151344.69
2019-05-05T23:52:54.138Z,151343.39
2019-05-05T23:55:23.973Z,151318.50
2019-05-05T23:57:54.582Z,151322.45
